Archival Weather

Chicago O'Hare International

Chicago, Illinois (KORD)

Report from: Sunday, December 4, 2022 10:51 AM CST
Current time: Monday, June 24, 2024 6:12 AM CDT

Current weather – Weather history – Daily summaries
Weather forecast

Temperature0.6°C (33.1°F)
Wind chill-5.0°C (23.0°F)
Dew point-10.6°C (12.9°F)
Winds 13 kts (6.7 m/s, 15 mph) West-Southwest (240°)
Wind gusts 20 kts (10.3 m/s, 23 mph)
Visibility10 mi. (16.1 km)
Clouds Sky clear
Altimeter30.19 in.Hg (1022 mB)
Relative humidity43 %
Density altitude-2,044 ft. (-623 m)
Sea-level pressure102.3 kPa (1023 mB, 30.21 in.Hg)
Remarks System requires maintenance
Automated weather observing station with precipitation discriminator
Flight conditions Visual Meteorological Conditions
Raw dataKORD 041651Z 24013G20KT 10SM CLR 01/M11 A3019 RMK AO2 SLP231 T00061106 $
An error has occurred. This application may no longer respond until reloaded. Reload 🗙